sensor_id;sensor_type;location;lat;lon;timestamp;pressure;altitude;pressure_sealevel;temperature;humidity
57827;BME280;43656;57.746;11.780;2022-07-06T00:01:18;101248.94;;;15.44;100.00
57827;BME280;43656;57.746;11.780;2022-07-06T00:03:44;101242.47;;;15.45;100.00
57827;BME280;43656;57.746;11.780;2022-07-06T00:06:09;101247.44;;;15.48;100.00
57827;BME280;43656;57.746;11.780;2022-07-06T00:08:34;101246.19;;;15.50;100.00
57827;BME280;43656;57.746;11.780;2022-07-06T00:11:00;101248.44;;;15.54;100.00
57827;BME280;43656;57.746;11.780;2022-07-06T00:13:26;101245.28;;;15.57;100.00
57827;BME280;43656;57.746;11.780;2022-07-06T00:15:51;101245.28;;;15.57;100.00
57827;BME280;43656;57.746;11.780;2022-07-06T00:18:16;101238.00;;;15.57;100.00
57827;BME280;43656;57.746;11.780;2022-07-06T00:20:42;101241.72;;;15.56;100.00
57827;BME280;43656;57.746;11.780;2022-07-06T00:23:07;101241.66;;;15.63;100.00
57827;BME280;43656;57.746;11.780;2022-07-06T00:25:32;101254.41;;;15.62;100.00
57827;BME280;43656;57.746;11.780;2022-07-06T00:27:57;101241.91;;;15.61;100.00
57827;BME280;43656;57.746;11.780;2022-07-06T00:30:22;101248.16;;;15.62;100.00
57827;BME280;43656;57.746;11.780;2022-07-06T00:32:48;101254.66;;;15.61;100.00
57827;BME280;43656;57.746;11.780;2022-07-06T00:35:14;101251.31;;;15.59;100.00
57827;BME280;43656;57.746;11.780;2022-07-06T00:37:39;101249.03;;;15.56;100.00
57827;BME280;43656;57.746;11.780;2022-07-06T00:40:05;101241.97;;;15.55;100.00
57827;BME280;43656;57.746;11.780;2022-07-06T00:42:38;101250.09;;;15.55;100.00
57827;BME280;43656;57.746;11.780;2022-07-06T00:45:03;101256.59;;;15.54;100.00
57827;BME280;43656;57.746;11.780;2022-07-06T00:47:29;101247.22;;;15.49;100.00
57827;BME280;43656;57.746;11.780;2022-07-06T00:49:54;101244.09;;;15.46;100.00
57827;BME280;43656;57.746;11.780;2022-07-06T00:52:38;101246.63;;;15.47;100.00
57827;BME280;43656;57.746;11.780;2022-07-06T00:55:03;101234.13;;;15.46;100.00
57827;BME280;43656;57.746;11.780;2022-07-06T00:57:29;101243.47;;;15.50;100.00
57827;BME280;43656;57.746;11.780;2022-07-06T00:59:54;101242.03;;;15.48;100.00
57827;BME280;43656;57.746;11.780;2022-07-06T01:02:20;101239.53;;;15.46;100.00
57827;BME280;43656;57.746;11.780;2022-07-06T01:04:47;101239.06;;;15.49;100.00
57827;BME280;43656;57.746;11.780;2022-07-06T01:07:12;101238.03;;;15.50;100.00
57827;BME280;43656;57.746;11.780;2022-07-06T01:09:38;101235.72;;;15.54;100.00
57827;BME280;43656;57.746;11.780;2022-07-06T01:12:03;101234.50;;;15.50;100.00
57827;BME280;43656;57.746;11.780;2022-07-06T01:14:29;101236.81;;;15.46;100.00
57827;BME280;43656;57.746;11.780;2022-07-06T01:16:56;101232.44;;;15.45;100.00
57827;BME280;43656;57.746;11.780;2022-07-06T01:19:21;101234.13;;;15.46;99.98
57827;BME280;43656;57.746;11.780;2022-07-06T01:21:47;101229.56;;;15.40;100.00
57827;BME280;43656;57.746;11.780;2022-07-06T01:24:12;101234.38;;;15.38;100.00
57827;BME280;43656;57.746;11.780;2022-07-06T01:26:37;101228.13;;;15.38;100.00
57827;BME280;43656;57.746;11.780;2022-07-06T01:29:02;101232.72;;;15.37;100.00
57827;BME280;43656;57.746;11.780;2022-07-06T01:31:28;101241.88;;;15.36;99.76
57827;BME280;43656;57.746;11.780;2022-07-06T01:33:56;101238.59;;;15.34;99.85
57827;BME280;43656;57.746;11.780;2022-07-06T01:36:22;101234.38;;;15.38;99.02
57827;BME280;43656;57.746;11.780;2022-07-06T01:38:52;101235.88;;;15.34;99.94
57827;BME280;43656;57.746;11.780;2022-07-06T01:41:18;101232.97;;;15.29;100.00
57827;BME280;43656;57.746;11.780;2022-07-06T01:43:43;101233.84;;;15.23;100.00
57827;BME280;43656;57.746;11.780;2022-07-06T01:46:09;101225.94;;;15.21;100.00
57827;BME280;43656;57.746;11.780;2022-07-06T01:48:34;101238.50;;;15.16;100.00
57827;BME280;43656;57.746;11.780;2022-07-06T01:50:59;101230.16;;;15.17;100.00
57827;BME280;43656;57.746;11.780;2022-07-06T01:53:24;101229.13;;;15.12;100.00
57827;BME280;43656;57.746;11.780;2022-07-06T01:55:49;101232.91;;;15.11;100.00
57827;BME280;43656;57.746;11.780;2022-07-06T01:58:15;101224.34;;;15.14;100.00
57827;BME280;43656;57.746;11.780;2022-07-06T02:00:40;101223.06;;;15.16;100.00
57827;BME280;43656;57.746;11.780;2022-07-06T02:03:05;101223.91;;;15.17;100.00
57827;BME280;43656;57.746;11.780;2022-07-06T02:05:31;101224.34;;;15.14;100.00
57827;BME280;43656;57.746;11.780;2022-07-06T02:07:56;101224.94;;;15.16;100.00
57827;BME280;43656;57.746;11.780;2022-07-06T02:10:21;101230.75;;;15.19;100.00
57827;BME280;43656;57.746;11.780;2022-07-06T02:12:46;101219.50;;;15.16;100.00
57827;BME280;43656;57.746;11.780;2022-07-06T02:15:19;101232.63;;;15.19;100.00
57827;BME280;43656;57.746;11.780;2022-07-06T02:17:44;101236.59;;;15.16;100.00
57827;BME280;43656;57.746;11.780;2022-07-06T02:20:10;101224.72;;;15.17;100.00
57827;BME280;43656;57.746;11.780;2022-07-06T02:22:35;101228.47;;;15.16;100.00
57827;BME280;43656;57.746;11.780;2022-07-06T02:25:00;101230.16;;;15.17;100.00
57827;BME280;43656;57.746;11.780;2022-07-06T02:27:26;101228.72;;;15.15;100.00
57827;BME280;43656;57.746;11.780;2022-07-06T02:29:51;101227.06;;;15.14;100.00
57827;BME280;43656;57.746;11.780;2022-07-06T02:32:16;101226.81;;;15.15;100.00
57827;BME280;43656;57.746;11.780;2022-07-06T02:34:42;101222.63;;;15.19;100.00
57827;BME280;43656;57.746;11.780;2022-07-06T02:37:07;101222.84;;;15.18;100.00
57827;BME280;43656;57.746;11.780;2022-07-06T02:39:33;101223.06;;;15.16;100.00
57827;BME280;43656;57.746;11.780;2022-07-06T02:41:58;101219.91;;;15.19;100.00
57827;BME280;43656;57.746;11.780;2022-07-06T02:44:23;101213.00;;;15.23;100.00
57827;BME280;43656;57.746;11.780;2022-07-06T02:46:48;101216.66;;;15.36;100.00
57827;BME280;43656;57.746;11.780;2022-07-06T02:49:13;101220.88;;;15.82;100.00
57827;BME280;43656;57.746;11.780;2022-07-06T02:51:39;101217.09;;;16.26;99.33
57827;BME280;43656;57.746;11.780;2022-07-06T02:54:04;101219.75;;;16.63;98.59
57827;BME280;43656;57.746;11.780;2022-07-06T02:56:29;101217.66;;;16.95;96.22
57827;BME280;43656;57.746;11.780;2022-07-06T02:58:54;101213.50;;;17.34;94.98
57827;BME280;43656;57.746;11.780;2022-07-06T03:01:20;101223.47;;;17.52;93.03
57827;BME280;43656;57.746;11.780;2022-07-06T03:03:45;101217.22;;;17.75;90.79
57827;BME280;43656;57.746;11.780;2022-07-06T03:06:10;101218.88;;;18.00;90.15
57827;BME280;43656;57.746;11.780;2022-07-06T03:08:35;101219.72;;;18.12;88.51
57827;BME280;43656;57.746;11.780;2022-07-06T03:11:08;101215.66;;;17.68;88.53
57827;BME280;43656;57.746;11.780;2022-07-06T03:13:34;101225.06;;;17.18;90.52
57827;BME280;43656;57.746;11.780;2022-07-06T03:15:59;101215.78;;;16.96;89.09
57827;BME280;43656;57.746;11.780;2022-07-06T03:18:24;101216.06;;;16.76;90.74
57827;BME280;43656;57.746;11.780;2022-07-06T03:20:50;101211.72;;;16.68;90.98
57827;BME280;43656;57.746;11.780;2022-07-06T03:23:15;101215.75;;;16.65;92.51
57827;BME280;43656;57.746;11.780;2022-07-06T03:25:40;101211.00;;;16.61;93.33
57827;BME280;43656;57.746;11.780;2022-07-06T03:28:05;101226.22;;;16.62;93.38
57827;BME280;43656;57.746;11.780;2022-07-06T03:30:31;101220.59;;;16.63;93.90
57827;BME280;43656;57.746;11.780;2022-07-06T03:32:56;101214.00;;;16.71;94.70
57827;BME280;43656;57.746;11.780;2022-07-06T03:35:21;101221.69;;;16.74;94.04
57827;BME280;43656;57.746;11.780;2022-07-06T03:37:47;101218.97;;;16.74;93.02
57827;BME280;43656;57.746;11.780;2022-07-06T03:40:12;101214.53;;;16.80;91.80
57827;BME280;43656;57.746;11.780;2022-07-06T03:42:37;101223.78;;;16.90;90.39
57827;BME280;43656;57.746;11.780;2022-07-06T03:45:03;101225.88;;;17.07;91.07
57827;BME280;43656;57.746;11.780;2022-07-06T03:47:29;101226.84;;;17.12;90.65
57827;BME280;43656;57.746;11.780;2022-07-06T03:49:54;101232.53;;;17.23;91.76
57827;BME280;43656;57.746;11.780;2022-07-06T03:52:19;101233.09;;;18.02;87.05
57827;BME280;43656;57.746;11.780;2022-07-06T03:54:45;101229.06;;;18.97;78.12
57827;BME280;43656;57.746;11.780;2022-07-06T03:57:10;101231.88;;;19.31;73.72
57827;BME280;43656;57.746;11.780;2022-07-06T03:59:38;101237.16;;;19.54;71.56
57827;BME280;43656;57.746;11.780;2022-07-06T04:02:03;101246.94;;;20.23;70.28
57827;BME280;43656;57.746;11.780;2022-07-06T04:04:28;101239.84;;;20.65;69.65
57827;BME280;43656;57.746;11.780;2022-07-06T04:06:54;101238.31;;;20.75;68.51
57827;BME280;43656;57.746;11.780;2022-07-06T04:09:19;101242.75;;;20.81;67.71
57827;BME280;43656;57.746;11.780;2022-07-06T04:11:44;101243.03;;;21.06;65.33
57827;BME280;43656;57.746;11.780;2022-07-06T04:14:09;101246.09;;;20.61;64.84
57827;BME280;43656;57.746;11.780;2022-07-06T04:16:34;101243.38;;;20.88;65.42
57827;BME280;43656;57.746;11.780;2022-07-06T04:19:00;101238.13;;;20.59;64.61
57827;BME280;43656;57.746;11.780;2022-07-06T04:21:25;101242.19;;;20.35;63.14
57827;BME280;43656;57.746;11.780;2022-07-06T04:23:50;101248.00;;;20.22;64.34
57827;BME280;43656;57.746;11.780;2022-07-06T04:26:15;101248.16;;;20.10;67.17
57827;BME280;43656;57.746;11.780;2022-07-06T04:28:48;101237.59;;;20.18;68.38
57827;BME280;43656;57.746;11.780;2022-07-06T04:31:14;101235.88;;;19.74;68.26
57827;BME280;43656;57.746;11.780;2022-07-06T04:33:40;101244.41;;;19.99;68.76
57827;BME280;43656;57.746;11.780;2022-07-06T04:36:06;101241.81;;;19.70;69.54
57827;BME280;43656;57.746;11.780;2022-07-06T04:38:31;101247.66;;;19.62;69.40
57827;BME280;43656;57.746;11.780;2022-07-06T04:40:57;101246.09;;;19.66;69.49
57827;BME280;43656;57.746;11.780;2022-07-06T04:43:22;101239.56;;;19.51;69.97
57827;BME280;43656;57.746;11.780;2022-07-06T04:45:47;101256.09;;;19.44;68.65
57827;BME280;43656;57.746;11.780;2022-07-06T04:48:12;101255.84;;;19.45;68.33
57827;BME280;43656;57.746;11.780;2022-07-06T04:50:38;101263.38;;;19.55;68.80
57827;BME280;43656;57.746;11.780;2022-07-06T04:53:03;101259.16;;;19.47;67.75
57827;BME280;43656;57.746;11.780;2022-07-06T04:55:29;101256.16;;;19.32;68.09
57827;BME280;43656;57.746;11.780;2022-07-06T05:00:29;101272.31;;;19.05;67.90
57827;BME280;43656;57.746;11.780;2022-07-06T05:02:55;101262.25;;;19.22;68.33
57827;BME280;43656;57.746;11.780;2022-07-06T05:05:20;101258.56;;;19.00;68.54
57827;BME280;43656;57.746;11.780;2022-07-06T05:12:56;101278.56;;;18.77;69.82
57827;BME280;43656;57.746;11.780;2022-07-06T05:36:02;101291.94;;;18.38;71.21
57827;BME280;43656;57.746;11.780;2022-07-06T05:38:28;101294.78;;;18.31;71.48
57827;BME280;43656;57.746;11.780;2022-07-06T05:43:28;101283.28;;;18.29;71.13
57827;BME280;43656;57.746;11.780;2022-07-06T05:45:54;101297.41;;;18.15;70.64
57827;BME280;43656;57.746;11.780;2022-07-06T05:48:20;101295.03;;;18.18;69.46
57827;BME280;43656;57.746;11.780;2022-07-06T05:53:41;101304.72;;;18.14;71.71
57827;BME280;43656;57.746;11.780;2022-07-06T05:56:08;101303.78;;;18.20;72.72
57827;BME280;43656;57.746;11.780;2022-07-06T05:58:33;101305.81;;;18.01;71.54
57827;BME280;43656;57.746;11.780;2022-07-06T06:29:25;101320.81;;;18.04;72.58
57827;BME280;43656;57.746;11.780;2022-07-06T06:31:51;101328.53;;;18.07;70.84
57827;BME280;43656;57.746;11.780;2022-07-06T06:36:51;101320.00;;;18.03;70.87
57827;BME280;43656;57.746;11.780;2022-07-06T07:20:39;101345.81;;;18.13;68.61
57827;BME280;43656;57.746;11.780;2022-07-06T07:23:04;101348.88;;;18.04;67.45
57827;BME280;43656;57.746;11.780;2022-07-06T07:25:30;101349.03;;;18.21;68.03
57827;BME280;43656;57.746;11.780;2022-07-06T07:30:30;101349.00;;;18.10;68.85
57827;BME280;43656;57.746;11.780;2022-07-06T07:32:56;101352.81;;;18.20;68.06
57827;BME280;43656;57.746;11.780;2022-07-06T07:35:26;101359.81;;;18.28;67.79
57827;BME280;43656;57.746;11.780;2022-07-06T07:37:52;101353.38;;;17.99;67.19
57827;BME280;43656;57.746;11.780;2022-07-06T07:40:18;101363.91;;;18.07;68.20
57827;BME280;43656;57.746;11.780;2022-07-06T07:42:45;101358.72;;;18.29;67.09
57827;BME280;43656;57.746;11.780;2022-07-06T07:45:12;101369.63;;;18.17;69.44
57827;BME280;43656;57.746;11.780;2022-07-06T07:47:38;101369.63;;;18.29;67.46
57827;BME280;43656;57.746;11.780;2022-07-06T07:50:04;101371.16;;;18.37;67.36
57827;BME280;43656;57.746;11.780;2022-07-06T07:52:29;101370.34;;;18.48;67.00
57827;BME280;43656;57.746;11.780;2022-07-06T07:57:30;101370.81;;;18.33;67.34
57827;BME280;43656;57.746;11.780;2022-07-06T08:02:30;101383.13;;;18.47;64.66
57827;BME280;43656;57.746;11.780;2022-07-06T08:17:51;101390.81;;;18.15;64.90
57827;BME280;43656;57.746;11.780;2022-07-06T08:43:34;101393.78;;;18.25;65.12
57827;BME280;43656;57.746;11.780;2022-07-06T08:46:00;101384.88;;;18.06;65.62
57827;BME280;43656;57.746;11.780;2022-07-06T08:48:26;101381.75;;;17.91;65.84
57827;BME280;43656;57.746;11.780;2022-07-06T08:50:53;101391.44;;;17.75;67.33
57827;BME280;43656;57.746;11.780;2022-07-06T08:53:20;101390.59;;;17.75;67.06
57827;BME280;43656;57.746;11.780;2022-07-06T09:13:52;101418.78;;;17.80;65.87
57827;BME280;43656;57.746;11.780;2022-07-06T09:50:07;101436.31;;;17.84;65.23
57827;BME280;43656;57.746;11.780;2022-07-06T10:00:18;101436.41;;;17.78;67.23
57827;BME280;43656;57.746;11.780;2022-07-06T10:02:44;101437.56;;;18.00;67.83
57827;BME280;43656;57.746;11.780;2022-07-06T10:05:10;101405.59;;;18.07;67.34
57827;BME280;43656;57.746;11.780;2022-07-06T10:07:36;101427.06;;;18.16;69.31
57827;BME280;43656;57.746;11.780;2022-07-06T10:10:01;101427.44;;;18.31;67.88
57827;BME280;43656;57.746;11.780;2022-07-06T10:12:28;101430.84;;;18.26;68.14
57827;BME280;43656;57.746;11.780;2022-07-06T10:14:53;101427.53;;;18.24;71.01
57827;BME280;43656;57.746;11.780;2022-07-06T10:17:19;101433.00;;;18.36;68.69
57827;BME280;43656;57.746;11.780;2022-07-06T10:19:47;101428.25;;;18.43;68.05
57827;BME280;43656;57.746;11.780;2022-07-06T10:22:14;101435.28;;;18.51;68.32
57827;BME280;43656;57.746;11.780;2022-07-06T10:24:43;101444.25;;;18.40;65.70
57827;BME280;43656;57.746;11.780;2022-07-06T10:27:09;101443.22;;;18.52;66.59
57827;BME280;43656;57.746;11.780;2022-07-06T10:29:35;101447.00;;;18.51;65.61
57827;BME280;43656;57.746;11.780;2022-07-06T10:34:45;101449.72;;;18.40;67.53
57827;BME280;43656;57.746;11.780;2022-07-06T10:37:22;101441.75;;;18.26;67.14
57827;BME280;43656;57.746;11.780;2022-07-06T10:39:48;101440.22;;;18.30;67.34
57827;BME280;43656;57.746;11.780;2022-07-06T10:42:39;101438.16;;;18.14;66.22
57827;BME280;43656;57.746;11.780;2022-07-06T11:21:21;101437.97;;;18.16;65.45
57827;BME280;43656;57.746;11.780;2022-07-06T11:23:47;101439.28;;;18.25;64.39
57827;BME280;43656;57.746;11.780;2022-07-06T11:26:13;101445.09;;;18.52;64.30
57827;BME280;43656;57.746;11.780;2022-07-06T11:28:41;101436.91;;;18.64;63.73
57827;BME280;43656;57.746;11.780;2022-07-06T11:31:07;101439.78;;;18.81;62.78
57827;BME280;43656;57.746;11.780;2022-07-06T11:33:32;101439.16;;;18.67;62.42
57827;BME280;43656;57.746;11.780;2022-07-06T11:36:17;101429.59;;;18.64;64.20
57827;BME280;43656;57.746;11.780;2022-07-06T11:38:43;101436.22;;;18.92;61.31
57827;BME280;43656;57.746;11.780;2022-07-06T11:41:09;101436.34;;;18.73;60.99
57827;BME280;43656;57.746;11.780;2022-07-06T11:43:36;101434.44;;;18.86;60.06
57827;BME280;43656;57.746;11.780;2022-07-06T11:46:02;101445.47;;;19.02;60.95
57827;BME280;43656;57.746;11.780;2022-07-06T11:48:28;101442.28;;;18.82;61.00
57827;BME280;43656;57.746;11.780;2022-07-06T11:50:57;101446.53;;;18.54;63.51
57827;BME280;43656;57.746;11.780;2022-07-06T11:53:23;101451.41;;;18.64;61.08
57827;BME280;43656;57.746;11.780;2022-07-06T11:55:48;101434.66;;;18.61;61.30
57827;BME280;43656;57.746;11.780;2022-07-06T11:58:14;101444.16;;;18.58;61.97
57827;BME280;43656;57.746;11.780;2022-07-06T12:00:39;101441.22;;;18.83;61.12
57827;BME280;43656;57.746;11.780;2022-07-06T12:03:05;101434.53;;;18.67;59.55
57827;BME280;43656;57.746;11.780;2022-07-06T12:05:31;101443.56;;;18.68;59.11
57827;BME280;43656;57.746;11.780;2022-07-06T12:08:05;101435.97;;;18.70;60.00
57827;BME280;43656;57.746;11.780;2022-07-06T12:10:31;101437.78;;;18.64;61.04
57827;BME280;43656;57.746;11.780;2022-07-06T12:13:02;101442.50;;;18.92;63.62
57827;BME280;43656;57.746;11.780;2022-07-06T12:15:27;101435.63;;;18.90;63.41
57827;BME280;43656;57.746;11.780;2022-07-06T12:17:53;101427.91;;;18.87;62.71
57827;BME280;43656;57.746;11.780;2022-07-06T12:20:18;101429.59;;;18.88;62.12
57827;BME280;43656;57.746;11.780;2022-07-06T12:22:44;101433.94;;;19.00;63.01
57827;BME280;43656;57.746;11.780;2022-07-06T12:25:09;101426.84;;;18.99;64.05
57827;BME280;43656;57.746;11.780;2022-07-06T12:27:35;101427.31;;;18.96;63.56
57827;BME280;43656;57.746;11.780;2022-07-06T12:30:10;101429.34;;;18.89;63.19
57827;BME280;43656;57.746;11.780;2022-07-06T12:32:36;101433.63;;;18.85;61.91
57827;BME280;43656;57.746;11.780;2022-07-06T12:35:04;101419.38;;;18.95;60.95
57827;BME280;43656;57.746;11.780;2022-07-06T12:37:29;101432.75;;;19.08;62.45
57827;BME280;43656;57.746;11.780;2022-07-06T12:39:55;101423.28;;;18.99;63.43
57827;BME280;43656;57.746;11.780;2022-07-06T12:42:21;101421.38;;;18.99;63.91
57827;BME280;43656;57.746;11.780;2022-07-06T12:50:04;101423.75;;;19.08;66.68
57827;BME280;43656;57.746;11.780;2022-07-06T12:52:30;101427.41;;;19.13;68.64
57827;BME280;43656;57.746;11.780;2022-07-06T12:54:59;101436.19;;;19.04;69.50
57827;BME280;43656;57.746;11.780;2022-07-06T12:57:24;101422.81;;;19.02;71.90
57827;BME280;43656;57.746;11.780;2022-07-06T13:02:26;101414.38;;;19.04;67.18
57827;BME280;43656;57.746;11.780;2022-07-06T13:07:24;101417.09;;;19.15;65.52
57827;BME280;43656;57.746;11.780;2022-07-06T13:09:49;101415.25;;;19.33;66.54
57827;BME280;43656;57.746;11.780;2022-07-06T13:12:15;101417.16;;;19.32;65.67
57827;BME280;43656;57.746;11.780;2022-07-06T13:14:40;101422.66;;;19.20;66.44
57827;BME280;43656;57.746;11.780;2022-07-06T13:17:06;101417.84;;;18.99;66.83
57827;BME280;43656;57.746;11.780;2022-07-06T13:19:32;101428.06;;;18.92;67.06
57827;BME280;43656;57.746;11.780;2022-07-06T13:21:57;101428.41;;;18.95;67.55
57827;BME280;43656;57.746;11.780;2022-07-06T13:24:22;101406.19;;;19.04;67.46
57827;BME280;43656;57.746;11.780;2022-07-06T13:26:48;101423.72;;;19.19;68.52
57827;BME280;43656;57.746;11.780;2022-07-06T13:29:13;101419.69;;;19.22;69.95
57827;BME280;43656;57.746;11.780;2022-07-06T13:31:39;101419.34;;;19.18;69.63
57827;BME280;43656;57.746;11.780;2022-07-06T13:34:05;101415.66;;;19.13;68.70
57827;BME280;43656;57.746;11.780;2022-07-06T13:36:31;101416.25;;;19.15;69.13
57827;BME280;43656;57.746;11.780;2022-07-06T13:38:57;101416.06;;;19.05;70.47
57827;BME280;43656;57.746;11.780;2022-07-06T13:41:22;101406.03;;;19.22;70.00
57827;BME280;43656;57.746;11.780;2022-07-06T13:43:48;101403.56;;;19.20;69.80
57827;BME280;43656;57.746;11.780;2022-07-06T13:46:13;101404.72;;;19.24;69.58
57827;BME280;43656;57.746;11.780;2022-07-06T13:48:41;101405.69;;;19.18;73.78
57827;BME280;43656;57.746;11.780;2022-07-06T13:53:57;101401.53;;;19.28;74.90
57827;BME280;43656;57.746;11.780;2022-07-06T14:06:42;101395.06;;;19.05;72.63
57827;BME280;43656;57.746;11.780;2022-07-06T14:19:28;101403.84;;;18.95;67.27
57827;BME280;43656;57.746;11.780;2022-07-06T14:21:54;101400.19;;;18.90;64.88
57827;BME280;43656;57.746;11.780;2022-07-06T14:24:19;101388.66;;;18.99;62.01
57827;BME280;43656;57.746;11.780;2022-07-06T14:26:45;101382.38;;;18.99;61.33
57827;BME280;43656;57.746;11.780;2022-07-06T14:29:10;101378.00;;;18.98;59.08
57827;BME280;43656;57.746;11.780;2022-07-06T14:31:36;101388.31;;;18.96;54.91
57827;BME280;43656;57.746;11.780;2022-07-06T14:50:16;101411.75;;;19.20;66.89
57827;BME280;43656;57.746;11.780;2022-07-06T14:55:46;101407.00;;;19.16;66.10
57827;BME280;43656;57.746;11.780;2022-07-06T14:58:11;101407.47;;;19.13;67.81
57827;BME280;43656;57.746;11.780;2022-07-06T15:00:36;101397.03;;;19.21;67.71
57827;BME280;43656;57.746;11.780;2022-07-06T15:03:02;101401.19;;;19.12;68.53
57827;BME280;43656;57.746;11.780;2022-07-06T15:05:27;101406.91;;;19.11;68.12
57827;BME280;43656;57.746;11.780;2022-07-06T15:07:53;101398.59;;;19.06;66.89
57827;BME280;43656;57.746;11.780;2022-07-06T15:10:21;101389.69;;;19.10;65.72
57827;BME280;43656;57.746;11.780;2022-07-06T15:15:18;101387.19;;;19.20;69.39
57827;BME280;43656;57.746;11.780;2022-07-06T15:17:43;101379.66;;;18.99;69.33
57827;BME280;43656;57.746;11.780;2022-07-06T15:20:09;101381.41;;;19.05;68.72
57827;BME280;43656;57.746;11.780;2022-07-06T15:22:36;101385.22;;;19.04;68.71
57827;BME280;43656;57.746;11.780;2022-07-06T15:30:33;101372.91;;;19.30;65.53
57827;BME280;43656;57.746;11.780;2022-07-06T15:32:58;101365.44;;;19.25;66.88
57827;BME280;43656;57.746;11.780;2022-07-06T15:35:24;101360.44;;;19.34;66.96
57827;BME280;43656;57.746;11.780;2022-07-06T15:37:50;101348.41;;;19.18;67.85
57827;BME280;43656;57.746;11.780;2022-07-06T15:40:15;101349.56;;;19.22;67.03
57827;BME280;43656;57.746;11.780;2022-07-06T15:42:49;101350.53;;;19.16;66.75
57827;BME280;43656;57.746;11.780;2022-07-06T15:45:16;101346.31;;;19.37;65.38
57827;BME280;43656;57.746;11.780;2022-07-06T15:47:43;101342.44;;;19.50;64.56
57827;BME280;43656;57.746;11.780;2022-07-06T15:50:15;101336.31;;;19.43;64.03
57827;BME280;43656;57.746;11.780;2022-07-06T15:52:43;101325.81;;;19.52;64.44
57827;BME280;43656;57.746;11.780;2022-07-06T15:55:14;101329.38;;;19.52;64.34
57827;BME280;43656;57.746;11.780;2022-07-06T15:57:40;101326.38;;;19.65;64.00
57827;BME280;43656;57.746;11.780;2022-07-06T16:00:05;101326.38;;;19.65;63.51
57827;BME280;43656;57.746;11.780;2022-07-06T16:02:31;101319.63;;;19.56;63.91
57827;BME280;43656;57.746;11.780;2022-07-06T16:04:56;101319.19;;;19.31;64.86
57827;BME280;43656;57.746;11.780;2022-07-06T16:07:22;101321.84;;;19.14;64.75
57827;BME280;43656;57.746;11.780;2022-07-06T16:17:33;101300.59;;;19.61;64.78
57827;BME280;43656;57.746;11.780;2022-07-06T16:19:58;101298.09;;;19.60;64.57
57827;BME280;43656;57.746;11.780;2022-07-06T16:22:25;101300.47;;;19.68;65.15
57827;BME280;43656;57.746;11.780;2022-07-06T16:45:31;101259.25;;;19.86;66.70
57827;BME280;43656;57.746;11.780;2022-07-06T16:47:57;101256.19;;;19.83;65.35
57827;BME280;43656;57.746;11.780;2022-07-06T16:50:22;101256.16;;;19.49;66.18
57827;BME280;43656;57.746;11.780;2022-07-06T18:00:30;101163.44;;;18.58;73.55
57827;BME280;43656;57.746;11.780;2022-07-06T18:21:03;101131.59;;;18.47;72.41
57827;BME280;43656;57.746;11.780;2022-07-06T18:29:09;101123.09;;;18.72;72.33
57827;BME280;43656;57.746;11.780;2022-07-06T20:01:01;101035.53;;;15.81;100.00
57827;BME280;43656;57.746;11.780;2022-07-06T20:03:30;101026.22;;;15.77;100.00
57827;BME280;43656;57.746;11.780;2022-07-06T20:25:24;100996.28;;;15.47;100.00
57827;BME280;43656;57.746;11.780;2022-07-06T20:27:50;100996.28;;;15.47;100.00
57827;BME280;43656;57.746;11.780;2022-07-06T20:48:15;100963.09;;;15.33;100.00
57827;BME280;43656;57.746;11.780;2022-07-06T20:53:16;100958.25;;;15.35;100.00
57827;BME280;43656;57.746;11.780;2022-07-06T20:55:41;100950.81;;;15.31;100.00
57827;BME280;43656;57.746;11.780;2022-07-06T20:58:07;100949.97;;;15.30;100.00
57827;BME280;43656;57.746;11.780;2022-07-06T21:00:35;100942.44;;;15.32;100.00
57827;BME280;43656;57.746;11.780;2022-07-06T21:03:01;100940.91;;;15.36;100.00
57827;BME280;43656;57.746;11.780;2022-07-06T21:05:27;100935.34;;;15.31;100.00
57827;BME280;43656;57.746;11.780;2022-07-06T21:07:52;100938.06;;;15.31;100.00
57827;BME280;43656;57.746;11.780;2022-07-06T21:30:59;100911.59;;;15.45;100.00
57827;BME280;43656;57.746;11.780;2022-07-06T21:33:24;100900.56;;;15.46;100.00
57827;BME280;43656;57.746;11.780;2022-07-06T21:43:36;100888.31;;;15.56;100.00
